createdAt,value
2022-10-15T00:03:01.279Z,18.80
2022-10-15T00:08:05.415Z,15.00
2022-10-15T00:13:09.036Z,15.10
2022-10-15T00:18:12.558Z,16.50
2022-10-15T00:23:15.973Z,15.90
2022-10-15T00:28:19.426Z,16.20
2022-10-15T00:33:23.323Z,17.50
2022-10-15T00:38:27.865Z,15.10
2022-10-15T00:43:43.146Z,14.80
2022-10-15T00:48:50.071Z,14.70
2022-10-15T00:53:53.884Z,16.90
2022-10-15T00:58:57.812Z,14.60
2022-10-15T01:04:02.803Z,13.80
2022-10-15T01:09:06.799Z,13.50
2022-10-15T01:14:32.830Z,16.10
2022-10-15T01:20:17.797Z,12.30
2022-10-15T01:25:39.643Z,14.50
2022-10-15T01:30:47.407Z,15.00
2022-10-15T01:35:54.976Z,13.50
2022-10-15T01:41:05.509Z,13.10
2022-10-15T01:46:14.911Z,13.30
2022-10-15T01:51:25.852Z,13.60
2022-10-15T01:56:37.563Z,13.20
2022-10-15T02:01:44.097Z,11.60
2022-10-15T02:07:15.445Z,14.10
2022-10-15T02:12:49.053Z,13.30
2022-10-15T02:18:11.710Z,14.20
2022-10-15T02:23:42.347Z,17.40
2022-10-15T02:28:51.413Z,12.90
2022-10-15T02:33:59.113Z,14.10
2022-10-15T02:39:04.248Z,13.70
2022-10-15T02:44:09.029Z,13.70
2022-10-15T02:49:13.093Z,13.30
2022-10-15T02:54:18.018Z,13.60
2022-10-15T02:59:35.868Z,13.60
2022-10-15T03:04:47.456Z,15.30
2022-10-15T03:09:51.911Z,10.80
2022-10-15T03:14:56.137Z,13.30
2022-10-15T03:20:00.687Z,13.70
2022-10-15T03:25:05.104Z,12.60
2022-10-15T03:30:09.261Z,14.00
2022-10-15T03:35:14.847Z,12.40
2022-10-15T03:40:19.558Z,13.70
2022-10-15T03:45:24.838Z,15.70
2022-10-15T03:55:56.778Z,12.40
2022-10-15T04:01:00.495Z,11.80
2022-10-15T04:06:04.607Z,12.60
2022-10-15T04:11:08.328Z,12.50
2022-10-15T04:16:12.156Z,13.10
2022-10-15T04:21:17.001Z,15.60
2022-10-15T04:26:25.133Z,14.60
2022-10-15T04:31:28.656Z,10.60
2022-10-15T04:36:34.323Z,13.20
2022-10-15T04:41:49.715Z,9.70
2022-10-15T04:47:03.368Z,12.90
2022-10-15T04:52:17.945Z,15.90
2022-10-15T04:57:34.191Z,11.70
2022-10-15T05:02:42.652Z,14.80
2022-10-15T05:08:01.115Z,10.30
2022-10-15T05:13:04.677Z,12.50
2022-10-15T05:18:10.239Z,10.30
2022-10-15T05:23:22.155Z,11.80
2022-10-15T05:33:38.465Z,10.50
2022-10-15T05:38:42.024Z,12.00
2022-10-15T05:43:53.488Z,13.80
2022-10-15T05:49:00.528Z,10.70
2022-10-15T05:54:04.678Z,9.80
2022-10-15T05:59:08.183Z,12.60
2022-10-15T06:04:16.275Z,18.00
2022-10-15T06:09:26.688Z,14.60
2022-10-15T06:14:33.430Z,10.90
2022-10-15T06:19:37.128Z,11.10
2022-10-15T06:24:41.142Z,12.60
2022-10-15T06:29:45.802Z,13.20
2022-10-15T06:34:51.351Z,13.10
2022-10-15T06:39:57.120Z,9.80
2022-10-15T06:45:01.768Z,12.10
2022-10-15T06:50:06.810Z,13.50
2022-10-15T06:55:13.413Z,13.80
2022-10-15T07:00:39.780Z,14.20
2022-10-15T07:05:44.733Z,14.60
2022-10-15T07:10:54.066Z,18.50
2022-10-15T07:16:09.732Z,18.30
2022-10-15T07:21:13.185Z,15.30
2022-10-15T07:26:16.723Z,17.20
2022-10-15T07:31:21.758Z,18.20
2022-10-15T07:36:29.673Z,11.60
2022-10-15T07:41:33.724Z,15.90
2022-10-15T07:46:37.331Z,13.70
2022-10-15T07:51:42.665Z,10.60
2022-10-15T07:56:46.320Z,12.20
2022-10-15T08:01:51.782Z,13.70
2022-10-15T08:06:55.917Z,15.50
2022-10-15T08:12:02.496Z,12.40
2022-10-15T08:17:16.559Z,11.60
2022-10-15T08:22:31.145Z,16.30
2022-10-15T08:27:41.536Z,14.00
2022-10-15T08:32:46.782Z,14.80
2022-10-15T08:37:54.358Z,11.00
2022-10-15T08:42:58.636Z,11.20
2022-10-15T08:48:11.468Z,12.10
2022-10-15T08:53:22.404Z,12.20
2022-10-15T08:58:40.382Z,10.10
2022-10-15T09:04:23.205Z,10.50
2022-10-15T09:09:39.981Z,13.50
2022-10-15T09:14:46.541Z,13.40
2022-10-15T09:19:56.433Z,12.60
2022-10-15T09:25:22.704Z,10.10
2022-10-15T09:30:38.010Z,13.20
2022-10-15T09:36:15.528Z,11.50
2022-10-15T09:41:34.197Z,10.90
2022-10-15T09:46:44.994Z,15.00
2022-10-15T09:51:57.679Z,10.40
2022-10-15T09:57:01.030Z,11.60
2022-10-15T10:02:20.679Z,12.10
2022-10-15T10:07:36.234Z,12.60
2022-10-15T10:12:43.316Z,13.30
2022-10-15T10:17:53.604Z,10.80
2022-10-15T10:23:02.235Z,11.80
2022-10-15T10:28:14.750Z,13.50
2022-10-15T10:33:30.142Z,16.10
2022-10-15T10:38:36.939Z,13.10
2022-10-15T10:43:53.045Z,13.80
2022-10-15T10:48:56.572Z,12.70
2022-10-15T10:54:14.824Z,12.60
2022-10-15T10:59:30.800Z,12.70
2022-10-15T11:04:36.315Z,19.40
2022-10-15T11:09:56.053Z,16.70
2022-10-15T11:15:19.362Z,11.60
2022-10-15T11:20:59.705Z,15.00
2022-10-15T11:26:37.117Z,11.30
2022-10-15T11:32:02.949Z,15.90
2022-10-15T11:37:44.492Z,11.20
2022-10-15T11:43:10.835Z,13.20
2022-10-15T11:48:40.899Z,18.00
2022-10-15T11:53:54.279Z,17.50
2022-10-15T11:59:05.050Z,17.40
2022-10-15T12:04:39.453Z,12.00
2022-10-15T12:09:48.606Z,15.40
2022-10-15T12:15:19.650Z,19.30
2022-10-15T12:20:23.993Z,14.80
2022-10-15T12:25:35.493Z,13.40
2022-10-15T12:30:42.673Z,11.70
2022-10-15T12:35:55.224Z,15.50
2022-10-15T12:41:02.852Z,12.50
2022-10-15T12:46:12.047Z,15.10
2022-10-15T12:51:24.621Z,14.30
2022-10-15T12:56:51.573Z,13.20
2022-10-15T13:01:55.143Z,13.20
2022-10-15T13:07:04.346Z,13.70
2022-10-15T13:12:27.360Z,10.90
2022-10-15T13:17:32.165Z,14.60
2022-10-15T13:22:37.079Z,14.10
2022-10-15T13:27:40.836Z,10.40
2022-10-15T13:32:50.423Z,18.50
2022-10-15T13:37:53.924Z,10.70
2022-10-15T13:43:09.103Z,12.70
2022-10-15T13:48:14.534Z,12.60
2022-10-15T13:53:32.517Z,16.80
2022-10-15T13:58:41.674Z,12.90
2022-10-15T14:04:12.922Z,10.90
2022-10-15T14:09:31.777Z,10.90
2022-10-15T14:14:47.110Z,11.60
2022-10-15T14:20:21.717Z,11.80
2022-10-15T14:25:26.319Z,12.30
2022-10-15T14:30:40.313Z,10.80
2022-10-15T14:35:45.193Z,12.10
2022-10-15T14:41:07.171Z,12.10
2022-10-15T14:46:19.271Z,12.20
2022-10-15T14:51:25.890Z,13.70
2022-10-15T14:56:35.904Z,13.70
2022-10-15T15:01:56.081Z,12.80
2022-10-15T15:07:02.272Z,12.80
2022-10-15T15:12:14.926Z,15.90
2022-10-15T15:17:25.889Z,12.80
2022-10-15T15:22:34.322Z,13.40
2022-10-15T15:27:38.722Z,11.40
2022-10-15T15:32:49.222Z,15.60
2022-10-15T15:37:54.103Z,12.50
2022-10-15T15:42:59.095Z,14.90
2022-10-15T15:48:03.899Z,12.70
2022-10-15T15:53:07.521Z,13.40
2022-10-15T15:58:11.045Z,14.20
2022-10-15T16:03:15.279Z,12.50
2022-10-15T16:08:18.809Z,15.30
2022-10-15T16:13:27.953Z,13.50
2022-10-15T16:18:33.729Z,13.30
2022-10-15T16:23:41.649Z,14.70
2022-10-15T16:28:51.071Z,14.50
2022-10-15T16:33:57.452Z,12.00
2022-10-15T16:39:08.677Z,15.50
2022-10-15T16:44:23.616Z,17.30
2022-10-15T16:49:34.860Z,13.50
2022-10-15T16:54:50.838Z,18.70
2022-10-15T17:00:06.389Z,13.70
2022-10-15T17:05:24.959Z,16.20
2022-10-15T17:10:33.013Z,15.10
2022-10-15T17:15:41.583Z,14.90
2022-10-15T17:20:47.721Z,16.00
2022-10-15T17:25:56.970Z,13.90
2022-10-15T17:31:12.725Z,18.90
2022-10-15T17:37:07.247Z,30.80
2022-10-15T17:42:26.314Z,43.40
2022-10-15T17:47:41.872Z,40.00
2022-10-15T17:52:59.367Z,32.90
2022-10-15T17:58:13.785Z,33.00
2022-10-15T18:03:19.450Z,30.40
2022-10-15T18:08:22.866Z,32.70
2022-10-15T18:13:26.647Z,31.70
2022-10-15T18:18:32.928Z,31.30
2022-10-15T18:23:44.292Z,30.60
2022-10-15T18:28:51.625Z,29.80
2022-10-15T18:33:56.749Z,29.80
2022-10-15T18:39:00.674Z,30.70
2022-10-15T18:44:12.688Z,29.40
2022-10-15T18:49:18.229Z,26.80
2022-10-15T18:54:22.709Z,27.80
2022-10-15T18:59:36.046Z,30.30
2022-10-15T19:04:45.684Z,33.70
2022-10-15T19:09:51.196Z,23.70
2022-10-15T19:14:59.315Z,31.00
2022-10-15T19:20:04.457Z,32.50
2022-10-15T19:25:09.096Z,30.10
2022-10-15T19:30:13.743Z,29.20
2022-10-15T19:35:18.186Z,30.70
2022-10-15T19:40:21.708Z,28.80
2022-10-15T19:45:25.540Z,32.50
2022-10-15T19:50:29.259Z,36.10
2022-10-15T19:55:35.648Z,37.70
2022-10-15T20:00:39.066Z,25.50
2022-10-15T20:05:50.158Z,31.10
2022-10-15T20:16:03.747Z,32.60
2022-10-15T20:21:13.786Z,34.70
2022-10-15T20:26:19.590Z,34.00
2022-10-15T20:31:31.614Z,27.80
2022-10-15T20:36:41.679Z,29.40
2022-10-15T20:41:45.307Z,27.30
2022-10-15T20:46:58.042Z,23.20
2022-10-15T20:52:03.823Z,21.80
2022-10-15T20:57:07.424Z,23.70
2022-10-15T21:02:10.841Z,32.50
2022-10-15T21:07:14.507Z,30.50
2022-10-15T21:12:19.437Z,27.00
2022-10-15T21:17:24.048Z,31.50
2022-10-15T21:22:27.790Z,20.90
2022-10-15T21:27:31.208Z,23.50
2022-10-15T21:32:34.844Z,24.10
2022-10-15T21:37:39.375Z,22.90
2022-10-15T21:42:42.897Z,22.80
2022-10-15T21:47:47.510Z,24.50
2022-10-15T21:52:53.763Z,24.70
2022-10-15T21:57:57.245Z,21.90
2022-10-15T22:03:08.443Z,24.50
2022-10-15T22:08:18.308Z,20.90
2022-10-15T22:13:22.033Z,20.50
2022-10-15T22:18:26.902Z,19.70
2022-10-15T22:23:33.505Z,18.60
2022-10-15T22:28:37.208Z,20.70
2022-10-15T22:33:46.182Z,20.10
2022-10-15T22:44:03.461Z,19.60
2022-10-15T22:49:18.452Z,19.00
2022-10-15T22:54:24.013Z,24.80
2022-10-15T22:59:27.801Z,19.50
2022-10-15T23:04:31.219Z,18.00
2022-10-15T23:09:34.532Z,22.40
2022-10-15T23:14:39.281Z,20.40
2022-10-15T23:19:43.005Z,19.60
2022-10-15T23:24:46.436Z,17.00
2022-10-15T23:29:56.899Z,16.90
2022-10-15T23:35:12.400Z,22.00
2022-10-15T23:40:16.225Z,21.10
2022-10-15T23:45:19.643Z,18.10
2022-10-15T23:50:23.061Z,19.60
2022-10-15T23:55:26.686Z,18.10
